Time;durP1;ratioP1;P1;durP2;ratioP2;P2;SDS_P1;SDS_P2;PMS_P1;PMS_P2;Temp;Humidity;BMP_temperature;BMP_pressure;BME280_temperature;BME280_humidity;BME280_pressure;Samples;Min_cycle;Max_cycle;Signal;HPM_P1;HPM_P2
2022/06/22 00:02:28;;;;;;;6.40;4.63;;;;;18.60;93748.00;;;;7397050;19;20129;-82
2022/06/22 00:05:13;;;;;;;8.27;4.43;;;;;18.60;93742.00;;;;7396441;19;20137;-82
2022/06/22 00:07:57;;;;;;;6.82;5.03;;;;;18.50;93738.00;;;;7396620;19;20125;-81
2022/06/22 00:10:54;;;;;;;11.07;4.90;;;;;18.50;93725.00;;;;7397177;19;20132;-83
2022/06/22 00:13:25;;;;;;;13.93;4.90;;;;;18.50;93722.00;;;;7399942;19;20132;-82
2022/06/22 00:16:03;;;;;;;8.27;4.65;;;;;18.50;93712.00;;;;7397659;19;20137;-83
2022/06/22 00:18:49;;;;;;;8.40;4.85;;;;;18.40;93712.00;;;;7398519;19;20165;-81
2022/06/22 00:21:40;;;;;;;8.63;4.97;;;;;18.50;93706.00;;;;7398823;19;20113;-82
2022/06/22 00:24:23;;;;;;;9.85;4.90;;;;;18.60;93702.00;;;;7399349;19;20125;-81
2022/06/22 00:27:00;;;;;;;11.32;5.25;;;;;18.60;93699.00;;;;7396072;19;20144;-82
2022/06/22 00:29:35;;;;;;;8.27;5.05;;;;;18.60;93698.00;;;;7394558;19;20150;-81
2022/06/22 00:32:27;;;;;;;8.07;5.22;;;;;18.60;93700.00;;;;7394530;19;20145;-82
2022/06/22 00:34:56;;;;;;;6.30;4.22;;;;;18.50;93704.00;;;;7395356;19;20232;-81
2022/06/22 00:37:36;;;;;;;6.72;4.55;;;;;18.50;93707.00;;;;7395540;19;20169;-81
2022/06/22 00:40:16;;;;;;;7.10;4.57;;;;;18.40;93713.00;;;;7394980;19;20459;-81
2022/06/22 00:42:52;;;;;;;6.30;4.65;;;;;18.30;93716.00;;;;7395984;19;20121;-82
2022/06/22 00:45:31;;;;;;;6.95;5.20;;;;;18.30;93718.00;;;;7394818;19;20145;-80
2022/06/22 00:48:34;;;;;;;6.88;5.35;;;;;18.30;93719.00;;;;7394645;19;20162;-79
2022/06/22 00:51:08;;;;;;;8.20;4.97;;;;;18.40;93718.00;;;;7395151;19;20173;-81
2022/06/22 00:53:54;;;;;;;9.70;5.07;;;;;18.40;93728.00;;;;7395246;19;20136;-82
2022/06/22 00:56:50;;;;;;;11.48;5.93;;;;;18.40;93724.00;;;;7393623;19;20159;-81
2022/06/22 00:59:35;;;;;;;9.32;5.40;;;;;18.40;93726.00;;;;7395046;19;20137;-81
2022/06/22 01:02:26;;;;;;;8.40;5.43;;;;;18.70;93731.00;;;;7393533;19;20546;-81
2022/06/22 01:05:24;;;;;;;12.13;5.50;;;;;19.00;93732.00;;;;7394869;19;20504;-79
2022/06/22 01:08:11;;;;;;;7.47;5.10;;;;;19.10;93724.00;;;;7392823;19;20147;-79
2022/06/22 01:11:02;;;;;;;5.78;4.85;;;;;19.10;93732.00;;;;7393005;19;20237;-79
2022/06/22 01:13:43;;;;;;;7.63;4.78;;;;;19.30;93730.00;;;;7398365;19;20150;-82
2022/06/22 01:16:25;;;;;;;7.57;5.78;;;;;19.40;93728.00;;;;7393794;19;20149;-82
2022/06/22 01:19:18;;;;;;;8.35;5.68;;;;;19.20;93721.00;;;;7394153;19;20132;-78
2022/06/22 01:22:20;;;;;;;9.20;5.47;;;;;19.10;93722.00;;;;7393970;19;20607;-78
2022/06/22 01:25:12;;;;;;;7.93;5.72;;;;;18.90;93710.00;;;;7394005;19;20548;-79
2022/06/22 01:27:47;;;;;;;7.20;5.50;;;;;18.80;93707.00;;;;7394729;19;20121;-80
2022/06/22 01:30:37;;;;;;;8.48;4.95;;;;;18.60;93707.00;;;;7393218;19;20141;-78
2022/06/22 01:33:29;;;;;;;5.47;4.97;;;;;18.60;93717.00;;;;7393619;19;20595;-80
2022/06/22 01:36:01;;;;;;;7.63;4.97;;;;;18.60;93709.00;;;;7393873;19;20136;-78
2022/06/22 01:38:39;;;;;;;10.50;5.47;;;;;18.70;93719.00;;;;7395657;19;20475;-80
2022/06/22 01:41:29;;;;;;;7.63;6.00;;;;;18.90;93715.00;;;;7392433;19;20200;-81
2022/06/22 01:44:18;;;;;;;8.98;5.63;;;;;19.20;93704.00;;;;7393312;19;20144;-79
2022/06/22 01:47:09;;;;;;;9.07;5.15;;;;;19.20;93698.00;;;;7393552;19;20137;-80
2022/06/22 01:49:52;;;;;;;11.20;5.70;;;;;19.30;93711.00;;;;7390969;19;20656;-80
2022/06/22 01:52:51;;;;;;;9.43;5.40;;;;;19.20;93730.00;;;;7393293;19;20499;-80
2022/06/22 01:55:33;;;;;;;6.97;5.07;;;;;19.40;93737.00;;;;7393872;19;20129;-77
2022/06/22 01:58:07;;;;;;;7.90;5.28;;;;;19.60;93739.00;;;;7393801;19;20148;-80
2022/06/22 02:00:50;;;;;;;8.73;5.43;;;;;19.70;93737.00;;;;7393054;19;20144;-81
2022/06/22 02:03:29;;;;;;;6.55;5.15;;;;;19.50;93729.00;;;;7392474;19;20604;-82
2022/06/22 02:09:27;;;;;;;6.85;5.72;;;;;19.20;93685.00;;;;7393347;19;20133;-78
2022/06/22 02:12:20;;;;;;;8.77;5.85;;;;;19.00;93667.00;;;;7389911;19;20136;-78
2022/06/22 02:14:58;;;;;;;8.48;6.07;;;;;19.20;93680.00;;;;7393986;19;20133;-77
2022/06/22 02:17:38;;;;;;;9.77;6.55;;;;;18.90;93667.00;;;;7393298;19;20136;-77
2022/06/22 02:20:25;;;;;;;8.27;6.80;;;;;18.80;93671.00;;;;7393115;19;20125;-77
2022/06/22 02:23:06;;;;;;;10.13;6.30;;;;;18.80;93675.00;;;;7392046;19;20144;-77
2022/06/22 02:25:42;;;;;;;7.95;6.78;;;;;18.50;93671.00;;;;7390564;19;20159;-76
2022/06/22 02:28:16;;;;;;;7.85;6.65;;;;;18.30;93670.00;;;;7389492;19;20125;-77
2022/06/22 02:30:44;;;;;;;7.72;6.93;;;;;18.20;93676.00;;;;7391113;19;20133;-78
2022/06/22 02:33:15;;;;;;;9.88;6.95;;;;;18.10;93685.00;;;;7391013;19;20135;-77
2022/06/22 02:35:50;;;;;;;8.27;6.50;;;;;18.10;93689.00;;;;7390136;19;20148;-78
2022/06/22 02:38:18;;;;;;;8.02;7.20;;;;;18.10;93691.00;;;;7391482;19;20137;-77
2022/06/22 02:46:37;;;;;;;9.65;7.28;;;;;17.70;93708.00;;;;7393457;19;20168;-77
2022/06/22 02:49:24;;;;;;;10.25;7.20;;;;;17.90;93701.00;;;;7390070;19;20121;-77
2022/06/22 02:51:54;;;;;;;8.68;7.78;;;;;17.90;93695.00;;;;7391123;19;20948;-76
2022/06/22 02:54:46;;;;;;;9.70;6.63;;;;;17.90;93697.00;;;;7391055;19;20136;-78
2022/06/22 02:57:26;;;;;;;12.35;7.00;;;;;17.90;93701.00;;;;7391360;19;20148;-78
2022/06/22 03:00:03;;;;;;;9.55;6.80;;;;;17.80;93691.00;;;;7389050;19;20499;-77
2022/06/22 03:02:31;;;;;;;7.50;6.75;;;;;17.80;93694.00;;;;7390380;19;20157;-80
2022/06/22 03:05:00;;;;;;;10.68;6.70;;;;;17.80;93691.00;;;;7390927;19;20602;-78
2022/06/22 03:07:50;;;;;;;7.30;6.60;;;;;17.70;93681.00;;;;7388594;19;20646;-79
2022/06/22 03:11:05;;;;;;;8.07;6.90;;;;;17.70;93675.00;;;;7388528;19;20168;-78
2022/06/22 03:13:51;;;;;;;10.93;7.07;;;;;17.70;93682.00;;;;7389394;19;20153;-79
2022/06/22 03:16:31;;;;;;;7.43;6.72;;;;;17.70;93691.00;;;;7390483;19;20229;-78
2022/06/22 03:19:15;;;;;;;7.57;6.85;;;;;17.80;93695.00;;;;7389753;19;20124;-79
2022/06/22 03:21:43;;;;;;;8.52;6.60;;;;;18.20;93685.00;;;;7389777;19;20583;-78
2022/06/22 03:24:41;;;;;;;7.82;6.28;;;;;18.30;93687.00;;;;7389833;19;20603;-79
2022/06/22 03:27:23;;;;;;;9.05;6.03;;;;;18.40;93693.00;;;;7390525;19;20471;-78
2022/06/22 03:30:03;;;;;;;10.00;6.38;;;;;18.60;93685.00;;;;7389523;19;20137;-78
2022/06/22 03:32:57;;;;;;;11.45;6.35;;;;;18.60;93689.00;;;;7389045;19;20599;-80
2022/06/22 03:35:55;;;;;;;9.27;5.75;;;;;18.60;93658.00;;;;7389177;19;20619;-82
2022/06/22 03:38:34;;;;;;;8.32;5.80;;;;;18.70;93692.00;;;;7389284;19;20746;-82
2022/06/22 03:41:17;;;;;;;11.30;6.43;;;;;18.70;93680.00;;;;7390759;19;20132;-80
2022/06/22 03:44:05;;;;;;;6.80;5.78;;;;;18.70;93692.00;;;;7389724;19;20483;-81
2022/06/22 03:46:45;;;;;;;6.43;5.57;;;;;18.80;93687.00;;;;7392183;19;20125;-81
2022/06/22 03:49:42;;;;;;;6.75;5.90;;;;;18.90;93689.00;;;;7390054;19;20184;-80
2022/06/22 03:52:45;;;;;;;8.18;5.53;;;;;18.90;93692.00;;;;7391276;19;20494;-84
2022/06/22 03:55:29;;;;;;;7.65;5.63;;;;;18.90;93685.00;;;;7391024;19;20133;-82
2022/06/22 03:58:08;;;;;;;7.97;5.85;;;;;19.20;93687.00;;;;7391130;19;20152;-80
2022/06/22 04:00:39;;;;;;;7.63;5.38;;;;;19.30;93688.00;;;;7391261;19;20129;-80
2022/06/22 04:03:16;;;;;;;9.65;5.65;;;;;19.30;93700.00;;;;7389926;19;20212;-79
2022/06/22 04:06:03;;;;;;;9.57;5.45;;;;;19.30;93696.00;;;;7390807;19;20125;-80
2022/06/22 04:08:40;;;;;;;7.28;5.38;;;;;19.50;93698.00;;;;7387775;19;20533;-81
2022/06/22 04:11:13;;;;;;;6.88;5.28;;;;;19.50;93684.00;;;;7388562;19;20177;-78
2022/06/22 04:14:04;;;;;;;5.65;5.03;;;;;19.40;93681.00;;;;7394816;19;20132;-79
2022/06/22 04:16:38;;;;;;;8.50;5.65;;;;;19.40;93686.00;;;;7398231;19;20134;-78
2022/06/22 04:19:35;;;;;;;9.68;5.50;;;;;19.60;93693.00;;;;7399304;19;20148;-79
2022/06/22 04:22:10;;;;;;;5.43;4.65;;;;;19.70;93682.00;;;;7399323;19;20469;-80
2022/06/22 04:24:51;;;;;;;5.60;4.50;;;;;19.60;93683.00;;;;7397366;19;20144;-80
2022/06/22 04:27:28;;;;;;;6.72;4.95;;;;;19.50;93682.00;;;;7397874;19;20139;-80
2022/06/22 04:30:19;;;;;;;8.85;5.18;;;;;19.70;93684.00;;;;7398110;19;20212;-79
2022/06/22 04:33:02;;;;;;;6.38;4.90;;;;;19.70;93681.00;;;;7400390;19;20136;-79
2022/06/22 04:35:36;;;;;;;7.88;4.68;;;;;19.70;93685.00;;;;7397928;19;20129;-80
2022/06/22 04:38:26;;;;;;;5.25;4.20;;;;;19.90;93685.00;;;;7394829;19;20146;-79
2022/06/22 04:41:39;;;;;;;6.22;4.25;;;;;20.10;93678.00;;;;7395698;19;20554;-82
2022/06/22 04:44:18;;;;;;;7.68;4.03;;;;;20.30;93681.00;;;;7392778;19;20140;-80
2022/06/22 04:46:56;;;;;;;7.90;3.92;;;;;20.30;93682.00;;;;7397077;19;20129;-80
2022/06/22 04:49:31;;;;;;;4.15;3.65;;;;;20.20;93684.00;;;;7394307;19;20128;-79
2022/06/22 04:52:21;;;;;;;6.00;3.85;;;;;20.20;93676.00;;;;7394776;19;20140;-79
2022/06/22 04:54:57;;;;;;;6.00;4.20;;;;;20.20;93683.00;;;;7393874;19;20139;-78
2022/06/22 04:57:37;;;;;;;7.40;4.15;;;;;20.20;93683.00;;;;7393485;19;20483;-78
2022/06/22 05:00:11;;;;;;;5.45;4.60;;;;;20.20;93682.00;;;;7392822;19;20167;-78
2022/06/22 05:02:56;;;;;;;7.80;4.65;;;;;20.20;93685.00;;;;7394544;19;20117;-78
2022/06/22 05:05:29;;;;;;;12.63;4.90;;;;;20.30;93694.00;;;;7393054;19;20542;-78
2022/06/22 05:08:10;;;;;;;8.75;4.70;;;;;20.10;93690.00;;;;7390397;19;20172;-78
2022/06/22 05:10:50;;;;;;;8.02;4.45;;;;;20.30;93700.00;;;;7391924;19;20161;-79
2022/06/22 05:13:55;;;;;;;5.65;4.60;;;;;20.30;93704.00;;;;7392980;19;20608;-79
2022/06/22 05:16:27;;;;;;;6.05;4.43;;;;;20.30;93701.00;;;;7392804;19;20614;-78
2022/06/22 05:19:03;;;;;;;10.43;4.20;;;;;20.40;93695.00;;;;7393804;19;20133;-79
2022/06/22 05:21:39;;;;;;;5.53;4.32;;;;;20.40;93705.00;;;;7393576;19;20148;-79
2022/06/22 05:24:22;;;;;;;5.78;4.47;;;;;20.50;93710.00;;;;7390746;19;20132;-78
2022/06/22 05:26:56;;;;;;;7.03;4.10;;;;;20.50;93704.00;;;;7394304;19;20128;-77
2022/06/22 05:29:40;;;;;;;6.85;4.57;;;;;20.40;93722.00;;;;7393153;19;20152;-78
2022/06/22 05:32:23;;;;;;;7.10;4.30;;;;;20.20;93730.00;;;;7391628;19;20144;-78
2022/06/22 05:35:03;;;;;;;6.20;4.63;;;;;20.10;93735.00;;;;7393371;19;20129;-79
2022/06/22 05:37:37;;;;;;;5.00;4.38;;;;;20.10;93747.00;;;;7390885;19;20141;-78
2022/06/22 05:40:13;;;;;;;6.40;4.40;;;;;20.00;93748.00;;;;7392180;19;20128;-79
2022/06/22 05:42:40;;;;;;;6.45;5.18;;;;;20.00;93752.00;;;;7393495;19;20129;-77
2022/06/22 05:45:17;;;;;;;10.48;5.20;;;;;19.80;93760.00;;;;7390462;19;20621;-79
2022/06/22 05:47:56;;;;;;;8.82;4.68;;;;;19.80;93765.00;;;;7390758;19;20611;-77
2022/06/22 05:50:46;;;;;;;5.10;4.60;;;;;19.70;93787.00;;;;7392774;19;20140;-78
2022/06/22 05:53:45;;;;;;;8.43;5.38;;;;;19.80;93793.00;;;;7392672;19;20591;-77
2022/06/22 05:56:40;;;;;;;11.95;5.68;;;;;19.60;93789.00;;;;7393241;19;20131;-78
2022/06/22 05:59:34;;;;;;;12.13;5.60;;;;;19.30;93783.00;;;;7391861;19;20507;-80
2022/06/22 06:02:26;;;;;;;7.10;5.57;;;;;19.30;93784.00;;;;7390544;19;20129;-78
2022/06/22 06:05:14;;;;;;;9.48;5.40;;;;;19.30;93787.00;;;;7391815;19;20128;-78
2022/06/22 06:07:54;;;;;;;10.02;6.18;;;;;19.20;93796.00;;;;7388933;19;20187;-79
2022/06/22 06:10:34;;;;;;;9.15;6.28;;;;;19.30;93810.00;;;;7390297;19;20168;-78
2022/06/22 06:13:28;;;;;;;7.97;6.00;;;;;19.20;93813.00;;;;7392799;19;20148;-79
2022/06/22 06:16:07;;;;;;;9.30;6.50;;;;;19.10;93813.00;;;;7389704;19;20152;-78
2022/06/22 06:18:39;;;;;;;7.07;6.38;;;;;19.10;93800.00;;;;7390959;19;20145;-80
2022/06/22 06:21:28;;;;;;;8.30;6.20;;;;;19.10;93798.00;;;;7390584;19;20615;-79
2022/06/22 06:24:01;;;;;;;7.53;5.95;;;;;19.10;93795.00;;;;7390270;19;20219;-79
2022/06/22 06:30:00;;;;;;;7.78;5.78;;;;;19.10;93783.00;;;;7389587;19;20145;-77
2022/06/22 06:32:34;;;;;;;10.32;6.40;;;;;19.20;93783.00;;;;7394853;19;20604;-79
2022/06/22 06:35:19;;;;;;;6.43;5.82;;;;;19.30;93776.00;;;;7392055;19;20145;-82
2022/06/22 06:38:08;;;;;;;8.00;5.93;;;;;19.40;93776.00;;;;7389938;19;20125;-79
2022/06/22 06:40:45;;;;;;;7.18;5.82;;;;;19.60;93776.00;;;;7389842;19;20133;-80
2022/06/22 06:44:16;;;;;;;7.20;6.50;;;;;19.70;93747.00;;;;7390200;19;20129;-81
2022/06/22 06:46:51;;;;;;;7.80;6.80;;;;;19.90;93776.00;;;;7385934;19;20129;-78
2022/06/22 06:50:04;;;;;;;6.95;6.18;;;;;20.00;93766.00;;;;7388145;19;20129;-79
2022/06/22 06:53:21;;;;;;;6.70;6.10;;;;;20.10;93757.00;;;;7394953;19;20475;-82
2022/06/22 06:56:00;;;;;;;10.57;7.35;;;;;20.20;93761.00;;;;7393373;19;20140;-82
2022/06/22 06:58:35;;;;;;;9.13;6.25;;;;;20.30;93765.00;;;;7393563;19;20183;-81
2022/06/22 07:01:22;;;;;;;7.40;5.97;;;;;20.30;93758.00;;;;7393918;19;20128;-81
2022/06/22 07:03:53;;;;;;;6.65;5.65;;;;;20.40;93755.00;;;;7392316;19;20475;-79
2022/06/22 07:06:41;;;;;;;6.55;5.72;;;;;20.40;93751.00;;;;7392733;19;20555;-81
2022/06/22 07:09:31;;;;;;;10.02;5.93;;;;;20.40;93756.00;;;;7391026;19;20144;-83
2022/06/22 07:12:21;;;;;;;8.88;6.68;;;;;20.30;93747.00;;;;7387878;19;20168;-78
2022/06/22 07:14:49;;;;;;;7.75;6.10;;;;;20.30;93751.00;;;;7389446;19;20136;-80
2022/06/22 07:17:23;;;;;;;12.95;7.03;;;;;20.20;93745.00;;;;7387582;19;20199;-81
2022/06/22 07:20:10;;;;;;;8.65;6.30;;;;;20.20;93747.00;;;;7389605;19;20592;-81
2022/06/22 07:22:52;;;;;;;7.38;5.93;;;;;20.30;93751.00;;;;7388590;19;20208;-82
2022/06/22 07:25:43;;;;;;;9.05;6.30;;;;;20.50;93743.00;;;;7389017;19;20143;-78
2022/06/22 07:28:52;;;;;;;6.95;6.00;;;;;20.80;93739.00;;;;7388027;19;20145;-81
2022/06/22 07:31:35;;;;;;;9.60;5.63;;;;;21.30;93737.00;;;;7388207;19;20169;-80
2022/06/22 07:34:17;;;;;;;9.20;5.63;;;;;21.80;93741.00;;;;7387761;19;20156;-80
2022/06/22 07:37:00;;;;;;;9.07;5.43;;;;;22.20;93749.00;;;;7389082;19;20144;-81
2022/06/22 07:39:47;;;;;;;10.57;6.13;;;;;22.30;93757.00;;;;7389172;19;20465;-78
2022/06/22 07:42:16;;;;;;;8.25;6.38;;;;;22.40;93767.00;;;;7387614;19;20141;-80
2022/06/22 07:44:49;;;;;;;7.00;5.50;;;;;22.30;93765.00;;;;7387983;19;20144;-78
2022/06/22 07:47:26;;;;;;;11.38;5.90;;;;;22.20;93772.00;;;;7388018;19;20602;-81
2022/06/22 07:50:16;;;;;;;6.93;5.65;;;;;21.80;93773.00;;;;7397087;19;20196;-80
2022/06/22 07:52:55;;;;;;;8.75;5.72;;;;;21.60;93779.00;;;;7397777;19;20140;-81
2022/06/22 07:56:00;;;;;;;9.43;6.32;;;;;21.50;93780.00;;;;7399540;19;20608;-80
2022/06/22 07:58:48;;;;;;;5.47;4.93;;;;;21.30;93784.00;;;;7399444;19;20129;-80
2022/06/22 08:01:30;;;;;;;7.55;5.85;;;;;21.20;93789.00;;;;7394524;19;20630;-79
2022/06/22 08:04:19;;;;;;;6.80;5.10;;;;;21.10;93787.00;;;;7394838;19;20172;-81
2022/06/22 08:07:16;;;;;;;7.63;5.28;;;;;21.00;93779.00;;;;7394224;19;20153;-80
2022/06/22 08:09:59;;;;;;;6.40;5.78;;;;;20.90;93781.00;;;;7395751;19;20121;-80
2022/06/22 08:13:03;;;;;;;6.13;5.53;;;;;20.80;93781.00;;;;7397022;19;20519;-80
2022/06/22 08:15:43;;;;;;;9.38;5.60;;;;;20.70;93792.00;;;;7395025;19;20133;-78
2022/06/22 08:18:23;;;;;;;8.93;6.28;;;;;20.60;93794.00;;;;7395086;19;20129;-80
2022/06/22 08:20:57;;;;;;;10.18;6.90;;;;;20.60;93781.00;;;;7391291;19;20148;-81
2022/06/22 08:23:34;;;;;;;10.02;6.47;;;;;20.80;93780.00;;;;7396755;19;20753;-80
2022/06/22 08:26:22;;;;;;;7.57;6.85;;;;;21.00;93787.00;;;;7400900;19;20646;-80
2022/06/22 08:28:59;;;;;;;6.45;5.82;;;;;21.20;93787.00;;;;7397226;19;20136;-80
2022/06/22 08:31:31;;;;;;;10.63;7.57;;;;;21.20;93791.00;;;;7400179;19;20133;-81
2022/06/22 08:34:15;;;;;;;8.48;7.03;;;;;21.00;93795.00;;;;7401356;19;20145;-80
2022/06/22 08:36:55;;;;;;;7.05;6.35;;;;;21.10;93804.00;;;;7399545;19;20143;-81
2022/06/22 08:39:38;;;;;;;12.43;6.85;;;;;21.00;93798.00;;;;7398798;19;20144;-81
2022/06/22 08:42:25;;;;;;;7.70;6.05;;;;;20.90;93800.00;;;;7398122;19;20137;-81
2022/06/22 08:45:05;;;;;;;7.25;6.57;;;;;20.80;93803.00;;;;7399151;19;20600;-82
2022/06/22 08:47:53;;;;;;;6.70;5.78;;;;;20.80;93812.00;;;;7394504;19;20614;-79
2022/06/22 08:51:13;;;;;;;8.98;5.95;;;;;20.90;93803.00;;;;7396063;19;20676;-82
2022/06/22 08:53:55;;;;;;;8.30;6.95;;;;;21.20;93806.00;;;;7393776;19;20137;-81
2022/06/22 08:56:52;;;;;;;10.07;6.72;;;;;21.40;93797.00;;;;7395863;19;20133;-81
2022/06/22 08:59:54;;;;;;;8.13;7.13;;;;;21.60;93800.00;;;;7393403;19;20594;-81
2022/06/22 09:03:00;;;;;;;7.43;6.63;;;;;21.60;93803.00;;;;7393479;19;20655;-81
2022/06/22 09:05:36;;;;;;;11.35;6.70;;;;;21.80;93795.00;;;;7394328;19;20141;-82
2022/06/22 09:08:32;;;;;;;7.68;6.50;;;;;21.80;93796.00;;;;7392089;19;20249;-81
2022/06/22 09:11:17;;;;;;;9.48;6.20;;;;;21.90;93799.00;;;;7392323;19;20686;-82
2022/06/22 09:14:09;;;;;;;6.65;5.95;;;;;22.20;93793.00;;;;7393461;19;20133;-82
2022/06/22 09:17:03;;;;;;;6.95;6.25;;;;;22.30;93792.00;;;;7392955;19;20140;-81
2022/06/22 09:20:13;;;;;;;8.13;6.95;;;;;22.40;93800.00;;;;7391429;19;20615;-80
2022/06/22 09:23:00;;;;;;;11.68;6.72;;;;;22.00;93800.00;;;;7394984;19;20527;-80
2022/06/22 09:25:51;;;;;;;8.73;7.03;;;;;22.10;93800.00;;;;7393032;19;20613;-81
2022/06/22 09:28:45;;;;;;;7.55;6.60;;;;;22.30;93803.00;;;;7393324;19;20141;-81
2022/06/22 09:31:47;;;;;;;10.75;7.13;;;;;22.70;93803.00;;;;7389651;19;20132;-80
2022/06/22 09:34:33;;;;;;;9.15;7.43;;;;;22.60;93805.00;;;;7391652;19;20164;-82
2022/06/22 09:37:44;;;;;;;7.43;6.57;;;;;22.30;93808.00;;;;7394289;19;20579;-80
2022/06/22 09:40:33;;;;;;;8.43;7.07;;;;;22.10;93815.00;;;;7391599;19;20513;-80
2022/06/22 09:43:06;;;;;;;9.65;7.78;;;;;22.00;93815.00;;;;7394321;19;20157;-81
2022/06/22 09:45:43;;;;;;;7.88;7.07;;;;;22.00;93810.00;;;;7392700;19;20137;-81
2022/06/22 09:48:44;;;;;;;8.55;6.90;;;;;21.70;93812.00;;;;7390962;19;20137;-79
2022/06/22 09:51:36;;;;;;;9.90;7.85;;;;;21.60;93820.00;;;;7391184;19;20599;-81
2022/06/22 09:58:05;;;;;;;9.27;7.63;;;;;21.20;93821.00;;;;7391375;19;20141;-79
2022/06/22 10:00:58;;;;;;;9.38;8.00;;;;;20.90;93826.00;;;;7391204;19;20165;-77
2022/06/22 10:03:49;;;;;;;8.68;7.82;;;;;20.80;93832.00;;;;7392227;19;20579;-79
2022/06/22 10:06:53;;;;;;;12.73;8.75;;;;;20.70;93834.00;;;;7387638;19;20690;-79
2022/06/22 10:09:43;;;;;;;11.55;9.18;;;;;20.70;93837.00;;;;7389408;19;20603;-79
2022/06/22 10:12:53;;;;;;;12.75;8.43;;;;;20.70;93834.00;;;;7387376;19;20155;-79
2022/06/22 10:15:47;;;;;;;15.68;9.20;;;;;20.80;93848.00;;;;7390031;19;20136;-81
2022/06/22 10:18:48;;;;;;;11.07;9.20;;;;;20.80;93842.00;;;;7388112;19;20622;-79
2022/06/22 10:21:38;;;;;;;9.43;8.52;;;;;20.70;93853.00;;;;7389226;19;20650;-80
2022/06/22 10:24:35;;;;;;;10.00;8.98;;;;;20.60;93858.00;;;;7391853;19;20132;-77
2022/06/22 10:27:25;;;;;;;11.52;9.00;;;;;20.50;93852.00;;;;7392350;19;20117;-78
2022/06/22 10:30:28;;;;;;;10.38;9.38;;;;;20.40;93860.00;;;;7388438;19;20480;-79
2022/06/22 10:33:07;;;;;;;9.77;8.77;;;;;20.20;93860.00;;;;7392357;19;20201;-77
2022/06/22 10:36:05;;;;;;;13.10;9.70;;;;;20.10;93859.00;;;;7396145;19;20135;-79
2022/06/22 10:39:00;;;;;;;10.65;9.55;;;;;20.10;93854.00;;;;7391782;19;20180;-79
2022/06/22 10:45:18;;;;;;;12.05;9.85;;;;;19.90;93864.00;;;;7394833;19;20172;-79
2022/06/22 10:48:14;;;;;;;13.48;10.07;;;;;19.80;93853.00;;;;7391063;19;20513;-78
2022/06/22 10:51:08;;;;;;;10.55;9.52;;;;;19.90;93862.00;;;;7389781;19;20623;-79
2022/06/22 10:54:08;;;;;;;11.82;10.05;;;;;20.00;93863.00;;;;7389338;19;20184;-77
2022/06/22 10:56:45;;;;;;;11.60;9.75;;;;;20.00;93862.00;;;;7390079;19;20840;-77
2022/06/22 10:59:33;;;;;;;10.70;9.27;;;;;20.00;93869.00;;;;7387536;19;20121;-79
2022/06/22 11:02:49;;;;;;;11.48;9.50;;;;;20.00;93873.00;;;;7388436;19;20136;-79
2022/06/22 11:05:53;;;;;;;12.38;9.45;;;;;20.00;93881.00;;;;7392180;19;20133;-79
2022/06/22 11:08:52;;;;;;;13.82;9.48;;;;;20.00;93882.00;;;;7387883;19;20181;-79
2022/06/22 11:11:50;;;;;;;10.35;9.35;;;;;20.00;93875.00;;;;7389620;19;20168;-78
2022/06/22 11:14:45;;;;;;;9.68;8.10;;;;;20.20;93878.00;;;;7389776;19;20168;-78
2022/06/22 11:17:28;;;;;;;9.25;8.32;;;;;20.40;93872.00;;;;7387313;19;20124;-77
2022/06/22 11:20:23;;;;;;;12.30;8.30;;;;;20.40;93869.00;;;;7387396;19;20232;-79
2022/06/22 11:23:03;;;;;;;10.75;7.85;;;;;20.60;93875.00;;;;7395020;19;20584;-78
2022/06/22 11:32:27;;;;;;;10.25;7.47;;;;;20.20;93879.00;;;;7394618;19;20162;-78
2022/06/22 11:35:37;;;;;;;9.35;8.38;;;;;19.90;93891.00;;;;7391220;19;20152;-77
2022/06/22 11:38:07;;;;;;;10.98;7.35;;;;;19.70;93880.00;;;;7392013;19;20914;-77
2022/06/22 11:41:18;;;;;;;15.93;8.35;;;;;19.60;93884.00;;;;7391402;19;20129;-78
2022/06/22 11:43:49;;;;;;;12.13;7.70;;;;;19.80;93869.00;;;;7391242;19;20150;-77
2022/06/22 11:46:36;;;;;;;13.77;7.40;;;;;19.70;93868.00;;;;7392887;19;20156;-77
2022/06/22 11:49:22;;;;;;;12.40;7.40;;;;;19.80;93860.00;;;;7393299;19;20125;-78
2022/06/22 11:52:14;;;;;;;14.02;6.93;;;;;19.90;93867.00;;;;7387057;19;20152;-77
2022/06/22 11:55:20;;;;;;;12.98;6.55;;;;;20.10;93859.00;;;;7391686;19;20133;-77
2022/06/22 11:58:15;;;;;;;11.15;5.88;;;;;20.30;93850.00;;;;7391272;19;20145;-79
2022/06/22 12:01:08;;;;;;;13.27;5.22;;;;;20.50;93847.00;;;;7388067;19;20145;-79
2022/06/22 12:04:18;;;;;;;10.70;4.53;;;;;20.30;93854.00;;;;7390974;19;20132;-78
2022/06/22 12:06:48;;;;;;;13.23;4.15;;;;;20.20;93843.00;;;;7390199;19;20136;-79
2022/06/22 12:09:48;;;;;;;13.85;4.20;;;;;20.20;93837.00;;;;7390183;19;20611;-77
2022/06/22 12:12:34;;;;;;;15.88;4.50;;;;;20.20;93834.00;;;;7386945;19;20743;-79
2022/06/22 12:15:46;;;;;;;12.40;4.22;;;;;20.30;93839.00;;;;7393644;19;20133;-79
2022/06/22 12:18:43;;;;;;;12.60;4.43;;;;;20.50;93837.00;;;;7390758;19;20463;-77
2022/06/22 12:21:55;;;;;;;11.38;3.85;;;;;20.40;93823.00;;;;7391265;19;20125;-78
2022/06/22 12:24:42;;;;;;;9.73;3.67;;;;;20.50;93824.00;;;;7393033;19;20480;-77
2022/06/22 12:27:39;;;;;;;12.32;4.18;;;;;20.60;93810.00;;;;7391216;19;20141;-78
2022/06/22 12:30:28;;;;;;;13.30;4.00;;;;;20.70;93807.00;;;;7390506;19;20136;-78
2022/06/22 12:33:22;;;;;;;11.95;3.80;;;;;20.80;93805.00;;;;7389928;19;20125;-78
2022/06/22 12:36:08;;;;;;;13.00;4.00;;;;;20.90;93803.00;;;;7390659;19;20511;-78
2022/06/22 12:38:53;;;;;;;15.77;3.95;;;;;20.90;93811.00;;;;7390900;19;20595;-78
2022/06/22 12:42:18;;;;;;;12.93;4.07;;;;;20.50;93810.00;;;;7390026;19;20137;-78
2022/06/22 12:45:21;;;;;;;14.35;3.90;;;;;20.40;93813.00;;;;7391970;19;20145;-77
2022/06/22 12:48:09;;;;;;;14.85;4.40;;;;;20.40;93809.00;;;;7393690;19;20675;-78
2022/06/22 12:50:57;;;;;;;13.45;3.83;;;;;20.50;93795.00;;;;7392724;19;20148;-78
2022/06/22 12:53:53;;;;;;;10.05;3.78;;;;;20.80;93782.00;;;;7392146;19;20133;-78
2022/06/22 12:56:54;;;;;;;9.20;3.42;;;;;21.10;93787.00;;;;7389285;19;20156;-78
2022/06/22 12:59:34;;;;;;;11.57;3.53;;;;;21.10;93786.00;;;;7392126;19;20571;-78
2022/06/22 13:02:17;;;;;;;9.00;3.40;;;;;20.80;93801.00;;;;7391553;19;20575;-77
2022/06/22 13:04:57;;;;;;;10.55;3.15;;;;;20.80;93798.00;;;;7391527;19;20136;-78
2022/06/22 13:07:51;;;;;;;10.10;3.53;;;;;20.90;93793.00;;;;7390023;19;20601;-79
2022/06/22 13:10:26;;;;;;;11.55;3.60;;;;;21.00;93788.00;;;;7390492;19;20169;-79
2022/06/22 13:13:09;;;;;;;10.38;3.88;;;;;21.10;93801.00;;;;7388859;19;20224;-78
2022/06/22 13:15:39;;;;;;;14.23;3.60;;;;;21.10;93796.00;;;;7388121;19;20141;-79
2022/06/22 13:18:34;;;;;;;10.50;3.78;;;;;20.80;93793.00;;;;7387774;19;20153;-77
2022/06/22 13:21:08;;;;;;;9.65;3.20;;;;;21.10;93783.00;;;;7388989;19;20137;-78
2022/06/22 13:24:01;;;;;;;10.00;3.60;;;;;21.10;93780.00;;;;7386986;19;20159;-78
2022/06/22 13:27:00;;;;;;;10.48;3.78;;;;;21.30;93772.00;;;;7389314;19;20150;-78
2022/06/22 13:29:46;;;;;;;8.32;3.28;;;;;21.60;93771.00;;;;7387623;19;20170;-78
2022/06/22 13:32:19;;;;;;;10.52;3.60;;;;;22.00;93773.00;;;;7386423;19;20160;-79
2022/06/22 13:35:03;;;;;;;12.65;3.40;;;;;22.10;93767.00;;;;7388885;19;20143;-79
2022/06/22 13:37:33;;;;;;;9.30;3.38;;;;;21.90;93766.00;;;;7387252;19;20158;-79
2022/06/22 13:40:27;;;;;;;9.63;3.22;;;;;22.10;93751.00;;;;7387666;19;20150;-77
2022/06/22 13:43:04;;;;;;;13.95;3.97;;;;;22.20;93755.00;;;;7388897;19;20152;-78
2022/06/22 13:45:55;;;;;;;8.43;3.28;;;;;22.30;93757.00;;;;7385242;19;20148;-78
2022/06/22 13:48:26;;;;;;;9.32;3.30;;;;;22.10;93745.00;;;;7386358;19;20177;-78
2022/06/22 13:51:32;;;;;;;11.48;3.40;;;;;22.30;93751.00;;;;7386688;19;20133;-79
2022/06/22 13:54:36;;;;;;;8.20;3.15;;;;;22.40;93756.00;;;;7384993;19;20228;-79
2022/06/22 13:57:39;;;;;;;10.57;3.33;;;;;22.20;93750.00;;;;7386146;19;20128;-78
2022/06/22 14:00:40;;;;;;;7.38;3.13;;;;;22.30;93758.00;;;;7385795;19;20587;-78
2022/06/22 14:03:23;;;;;;;12.68;3.47;;;;;22.40;93759.00;;;;7386830;19;20163;-79
2022/06/22 14:05:57;;;;;;;11.27;3.50;;;;;22.10;93753.00;;;;7385074;19;20670;-78
2022/06/22 14:09:00;;;;;;;12.25;2.97;;;;;21.80;93753.00;;;;7383882;19;20527;-77
2022/06/22 14:11:55;;;;;;;8.13;3.20;;;;;21.70;93753.00;;;;7384244;19;20950;-77
2022/06/22 14:14:39;;;;;;;10.85;3.38;;;;;21.40;93748.00;;;;7386085;19;20635;-78
2022/06/22 14:17:31;;;;;;;12.45;3.30;;;;;21.50;93751.00;;;;7387320;19;20125;-78